Main page
METAR-TAF:

METAR-TAF

Airports :

Fairbanks, Alaska, United States

Fairbanks International Airport

latitude: 64-48-14N, longitude: 147-52-34W, elevation: 132 m

Current weather observation

The report was made 28 minutes ago, at 13:53 UTC
Calm wind
Temperature -32°C
Humidity 82%
Pressure 1016 hPa
Visibility: 8.0 km
Few clouds at a height of 200 ft
light snow

METAR: PAFA 211353Z 00000KT 5SM -SN FEW002 M32/M34 A3001 RMK AO2 SLP183 T13221344

Time: 05:21 (14:21 UTC)

Forecast

The report was made 45 minutes ago, at 13:36 UTC
Forecast valid from 21 at 14 UTC to 22 at 18 UTC
Wind kt from the North
Visibility: 4.8 km
Scattered clouds at a height of 200 ft
light snow, mist
From 21 at 1500 UTC
Wind kt from the North
Visibility: 4.8 km
Broken clouds at a height of 2500 ft
light snow, mist
From 22 at 0300 UTC
Wind kt from the North
Visibility: 9.7 km
Overcast at a height of 5000 ft
light snow, mist

TAF: PAFA 211336Z 2114/2218 00000KT 3SM -SN BR SCT002 FM211500 00000KT 3SM -SN BR BKN025 FM220300 00000KT 6SM -SN BR OVC050

Weather observations and forecasts of more than 4000 airports (METAR and TAF reports).

The available stations are represented by yellow and red dots on the map.

Hover mouse over dot to see the name of the station.

Then click to see weather observations and forecasts.

To change the map : click on the green buttons with a black cross to zoom in, on the green button with a dash to zoom out, or on the green arrows for adjacent maps.


METAR-TAF: